createdAt,value
2022-08-25T00:01:43.857Z,101452.28
2022-08-25T00:04:13.892Z,101453.56
2022-08-25T00:06:42.634Z,101449.53
2022-08-25T00:09:12.061Z,101450.81
2022-08-25T00:11:40.040Z,101453.13
2022-08-25T00:14:12.021Z,101449.13
2022-08-25T00:16:39.311Z,101454.56
2022-08-25T00:19:10.899Z,101451.34
2022-08-25T00:21:38.093Z,101457.66
2022-08-25T00:24:05.939Z,101457.34
2022-08-25T00:26:32.508Z,101451.69
2022-08-25T00:29:01.656Z,101456.69
2022-08-25T00:31:38.879Z,101454.94
2022-08-25T00:34:12.673Z,101456.94
2022-08-25T00:36:39.561Z,101466.19
2022-08-25T00:39:08.449Z,101468.00
2022-08-25T00:41:36.719Z,101469.03
2022-08-25T00:44:07.943Z,101465.78
2022-08-25T00:46:49.865Z,101466.50
2022-08-25T00:49:25.455Z,101464.78
2022-08-25T00:52:09.216Z,101466.06
2022-08-25T00:54:44.778Z,101464.44
2022-08-25T00:57:13.944Z,101471.81
2022-08-25T00:59:42.914Z,101471.69
2022-08-25T01:02:13.652Z,101475.59
2022-08-25T01:04:48.604Z,101474.22
2022-08-25T01:07:18.711Z,101470.44
2022-08-25T01:09:47.731Z,101473.53
2022-08-25T01:12:15.111Z,101477.69
2022-08-25T01:14:45.997Z,101478.16
2022-08-25T01:17:14.006Z,101471.69
2022-08-25T01:19:40.698Z,101474.81
2022-08-25T01:22:07.932Z,101468.94
2022-08-25T01:24:53.567Z,101470.44
2022-08-25T01:27:20.381Z,101474.81
2022-08-25T01:29:46.949Z,101471.00
2022-08-25T01:32:14.928Z,101466.19
2022-08-25T01:34:45.281Z,101471.13
2022-08-25T01:37:14.631Z,101464.22
2022-08-25T01:39:42.804Z,101468.13
2022-08-25T01:42:34.657Z,101471.78
2022-08-25T01:45:01.232Z,101470.38
2022-08-25T01:47:27.854Z,101464.53
2022-08-25T01:49:54.408Z,101463.13
2022-08-25T01:52:25.119Z,101468.09
2022-08-25T01:54:51.867Z,101466.13
2022-08-25T01:57:18.524Z,101472.66
2022-08-25T01:59:46.071Z,101469.66
2022-08-25T02:02:12.801Z,101459.56
2022-08-25T02:04:40.790Z,101462.41
2022-08-25T02:07:11.313Z,101457.34
2022-08-25T02:09:38.429Z,101463.66
2022-08-25T02:12:05.433Z,101459.06
2022-08-25T02:14:32.297Z,101457.91
2022-08-25T02:16:58.854Z,101460.41
2022-08-25T02:19:26.447Z,101461.66
2022-08-25T02:21:53.643Z,101456.03
2022-08-25T02:24:20.414Z,101472.34
2022-08-25T02:26:47.040Z,101465.91
2022-08-25T02:29:13.933Z,101459.81
2022-08-25T02:31:40.710Z,101456.59
2022-08-25T02:34:07.705Z,101465.56
2022-08-25T02:36:34.641Z,101460.72
2022-08-25T02:39:01.556Z,101461.72
2022-08-25T02:41:31.266Z,101460.34
2022-08-25T02:43:59.366Z,101472.78
2022-08-25T02:46:28.032Z,101461.63
2022-08-25T02:48:55.265Z,101471.00
2022-08-25T02:51:23.823Z,101468.59
2022-08-25T02:53:51.017Z,101470.66
2022-08-25T02:56:18.930Z,101471.88
2022-08-25T02:58:46.781Z,101469.47
2022-08-25T03:01:14.516Z,101482.06
2022-08-25T03:03:44.364Z,101470.72
2022-08-25T03:06:13.963Z,101469.53
2022-08-25T03:08:42.205Z,101468.59
2022-08-25T03:11:09.591Z,101460.88
2022-08-25T03:13:37.101Z,101459.72
2022-08-25T03:16:05.517Z,101462.59
2022-08-25T03:18:39.494Z,101463.84
2022-08-25T03:21:07.453Z,101457.16
2022-08-25T03:23:34.577Z,101451.06
2022-08-25T03:26:19.811Z,101447.03
2022-08-25T03:28:46.383Z,101448.88
2022-08-25T03:31:13.374Z,101443.00
2022-08-25T03:33:40.217Z,101443.22
2022-08-25T03:36:08.575Z,101439.19
2022-08-25T03:38:38.343Z,101435.97
2022-08-25T03:41:34.910Z,101440.66
2022-08-25T03:44:04.035Z,101436.63
2022-08-25T03:46:35.288Z,101430.78
2022-08-25T03:49:03.448Z,101422.84
2022-08-25T03:51:36.460Z,101419.84
2022-08-25T03:54:04.688Z,101415.59
2022-08-25T03:56:31.691Z,101422.72
2022-08-25T03:58:58.383Z,101423.75
2022-08-25T04:01:26.133Z,101416.41
2022-08-25T04:03:53.337Z,101413.97
2022-08-25T04:06:21.722Z,101418.91
2022-08-25T04:08:48.935Z,101414.63
2022-08-25T04:11:20.727Z,101421.97
2022-08-25T04:13:48.011Z,101420.38
2022-08-25T04:16:18.677Z,101424.84
2022-08-25T04:18:47.681Z,101419.78
2022-08-25T04:21:14.787Z,101419.78
2022-08-25T04:23:43.260Z,101411.50
2022-08-25T04:26:13.250Z,101413.31
2022-08-25T04:28:40.804Z,101412.50
2022-08-25T04:31:09.297Z,101410.09
2022-08-25T04:33:38.180Z,101406.06
2022-08-25T04:36:11.481Z,101403.66
2022-08-25T04:38:40.613Z,101404.66
2022-08-25T04:41:08.796Z,101403.88
2022-08-25T04:43:36.824Z,101398.63
2022-08-25T04:46:08.601Z,101401.03
2022-08-25T04:48:35.424Z,101403.44
2022-08-25T04:51:11.132Z,101398.53
2022-08-25T04:53:38.582Z,101397.50
2022-08-25T04:56:10.741Z,101398.31
2022-08-25T04:58:38.042Z,101397.28
2022-08-25T05:01:07.201Z,101403.94
2022-08-25T05:03:34.050Z,101397.41
2022-08-25T05:06:01.136Z,101406.72
2022-08-25T05:08:28.280Z,101409.94
2022-08-25T05:10:56.730Z,101410.75
2022-08-25T05:13:25.346Z,101411.13
2022-08-25T05:16:02.295Z,101403.78
2022-08-25T05:18:31.434Z,101412.88
2022-08-25T05:21:02.941Z,101407.38
2022-08-25T05:23:30.054Z,101407.75
2022-08-25T05:26:02.921Z,101410.97
2022-08-25T05:28:29.962Z,101413.94
2022-08-25T05:31:02.501Z,101404.56
2022-08-25T05:33:30.590Z,101414.06
2022-08-25T05:35:59.087Z,101405.28
2022-08-25T05:38:25.991Z,101407.16
2022-08-25T05:41:21.200Z,101408.13
2022-08-25T05:43:49.414Z,101398.00
2022-08-25T05:46:17.934Z,101396.25
2022-08-25T05:48:45.251Z,101396.47
2022-08-25T05:51:14.935Z,101386.56
2022-08-25T05:53:44.064Z,101400.38
2022-08-25T05:56:10.963Z,101397.69
2022-08-25T05:58:38.077Z,101390.59
2022-08-25T06:01:34.524Z,101402.44
2022-08-25T06:04:01.275Z,101404.94
2022-08-25T06:06:27.884Z,101399.25
2022-08-25T06:08:54.578Z,101409.03
2022-08-25T06:11:21.148Z,101403.75
2022-08-25T06:13:47.767Z,101398.53
2022-08-25T06:16:14.355Z,101401.81
2022-08-25T06:18:41.085Z,101391.72
2022-08-25T06:21:13.234Z,101389.03
2022-08-25T06:23:40.540Z,101395.66
2022-08-25T06:26:09.765Z,101400.72
2022-08-25T06:28:40.524Z,101401.50
2022-08-25T06:31:07.256Z,101399.31
2022-08-25T06:33:33.997Z,101398.19
2022-08-25T06:36:01.061Z,101396.75
2022-08-25T06:38:27.913Z,101399.94
2022-08-25T06:40:57.454Z,101399.13
2022-08-25T06:43:24.294Z,101406.56
2022-08-25T06:45:50.984Z,101406.41
2022-08-25T06:48:17.835Z,101410.94
2022-08-25T06:50:44.846Z,101407.72
2022-08-25T06:53:11.960Z,101405.56
2022-08-25T06:55:39.465Z,101409.78
2022-08-25T06:58:06.521Z,101411.25
2022-08-25T07:00:37.625Z,101415.31
2022-08-25T07:03:05.016Z,101407.03
2022-08-25T07:05:42.922Z,101406.59
2022-08-25T07:08:11.976Z,101408.72
2022-08-25T07:10:39.081Z,101410.38
2022-08-25T07:13:05.752Z,101409.81
2022-08-25T07:15:32.361Z,101409.09
2022-08-25T07:17:59.141Z,101411.53
2022-08-25T07:22:57.889Z,101410.81
2022-08-25T07:25:24.876Z,101405.03
2022-08-25T07:27:53.848Z,101403.19
2022-08-25T07:30:23.740Z,101411.22
2022-08-25T07:35:37.962Z,101410.75
2022-08-25T07:38:09.044Z,101404.78
2022-08-25T07:40:38.455Z,101405.88
2022-08-25T07:43:10.315Z,101407.78
2022-08-25T07:45:49.019Z,101413.66
2022-08-25T07:48:16.428Z,101408.59
2022-08-25T07:50:46.575Z,101409.69
2022-08-25T07:53:15.017Z,101403.97
2022-08-25T07:55:42.706Z,101405.91
2022-08-25T07:58:12.333Z,101405.53
2022-08-25T08:00:40.837Z,101411.06
2022-08-25T08:03:12.814Z,101404.09
2022-08-25T08:05:50.671Z,101396.59
2022-08-25T08:08:17.462Z,101396.13
2022-08-25T08:11:04.365Z,101391.63
2022-08-25T08:13:35.730Z,101388.50
2022-08-25T08:16:13.174Z,101389.03
2022-08-25T08:18:40.506Z,101387.03
2022-08-25T08:21:19.941Z,101379.91
2022-08-25T08:23:48.497Z,101380.06
2022-08-25T08:26:17.018Z,101380.53
2022-08-25T08:28:43.765Z,101382.53
2022-08-25T08:31:10.623Z,101380.09
2022-08-25T08:33:40.862Z,101383.03
2022-08-25T08:36:11.765Z,101386.91
2022-08-25T08:38:41.205Z,101382.84
2022-08-25T08:44:44.088Z,101371.94
2022-08-25T08:47:36.219Z,101365.72
2022-08-25T08:50:06.818Z,101360.66
2022-08-25T08:52:48.819Z,101361.97
2022-08-25T08:55:32.611Z,101370.66
2022-08-25T08:58:03.076Z,101369.78
2022-08-25T09:00:32.245Z,101371.34
2022-08-25T09:03:06.296Z,101370.09
2022-08-25T09:05:46.785Z,101353.28
2022-08-25T09:08:20.403Z,101356.47
2022-08-25T09:10:54.219Z,101357.13
2022-08-25T09:13:38.892Z,101350.88
2022-08-25T09:16:33.938Z,101347.50
2022-08-25T09:19:21.356Z,101343.06
2022-08-25T09:22:02.246Z,101340.91
2022-08-25T09:24:35.020Z,101340.22
2022-08-25T09:27:46.008Z,101336.16
2022-08-25T09:30:18.471Z,101332.78
2022-08-25T09:32:53.660Z,101330.03
2022-08-25T09:35:22.551Z,101316.88
2022-08-25T09:38:15.775Z,101315.38
2022-08-25T09:40:46.426Z,101314.41
2022-08-25T09:43:21.011Z,101316.06
2022-08-25T09:45:56.150Z,101304.66
2022-08-25T09:48:30.650Z,101314.31
2022-08-25T09:51:10.176Z,101308.53
2022-08-25T09:53:42.510Z,101307.00
2022-08-25T09:56:10.125Z,101296.75
2022-08-25T09:58:38.305Z,101300.75
2022-08-25T10:01:22.421Z,101289.22
2022-08-25T10:03:58.256Z,101286.59
2022-08-25T10:06:25.965Z,101272.59
2022-08-25T10:08:57.659Z,101278.09
2022-08-25T10:11:37.985Z,101269.84
2022-08-25T10:14:28.776Z,101269.66
2022-08-25T10:17:27.484Z,101264.38
2022-08-25T10:20:14.751Z,101259.69
2022-08-25T10:22:43.476Z,101259.59
2022-08-25T10:25:14.932Z,101253.53
2022-08-25T10:28:23.974Z,101244.69
2022-08-25T10:31:06.793Z,101252.94
2022-08-25T10:33:45.543Z,101248.63
2022-08-25T10:36:38.329Z,101238.03
2022-08-25T10:39:33.896Z,101249.16
2022-08-25T10:42:29.418Z,101250.53
2022-08-25T10:45:34.781Z,101249.94
2022-08-25T10:48:23.345Z,101248.66
2022-08-25T10:51:01.696Z,101235.72
2022-08-25T10:53:54.803Z,101241.38
2022-08-25T10:56:28.593Z,101237.84
2022-08-25T10:59:18.260Z,101226.97
2022-08-25T11:01:56.514Z,101225.09
2022-08-25T11:04:50.515Z,101227.03
2022-08-25T11:07:25.420Z,101226.28
2022-08-25T11:09:55.011Z,101216.63
2022-08-25T11:12:24.528Z,101206.31
2022-08-25T11:15:00.317Z,101211.00
2022-08-25T11:17:40.090Z,101218.94
2022-08-25T11:20:19.833Z,101212.78
2022-08-25T11:23:14.864Z,101214.16
2022-08-25T11:25:52.132Z,101212.28
2022-08-25T11:28:47.130Z,101206.31
2022-08-25T11:31:15.667Z,101203.16
2022-08-25T11:33:43.656Z,101205.13
2022-08-25T11:36:30.903Z,101200.50
2022-08-25T11:39:40.616Z,101196.47
2022-08-25T11:42:19.785Z,101188.28
2022-08-25T11:45:07.778Z,101192.56
2022-08-25T11:47:37.711Z,101183.31
2022-08-25T11:50:09.597Z,101182.06
2022-08-25T11:52:43.301Z,101181.84
2022-08-25T11:55:23.156Z,101187.06
2022-08-25T11:57:53.566Z,101184.72
2022-08-25T12:00:42.812Z,101179.81
2022-08-25T12:03:37.265Z,101190.03
2022-08-25T12:06:27.274Z,101188.06
2022-08-25T12:08:59.587Z,101175.41
2022-08-25T12:11:42.357Z,101175.00
2022-08-25T12:14:24.563Z,101166.06
2022-08-25T12:16:54.950Z,101167.03
2022-08-25T12:19:35.483Z,101166.28
2022-08-25T12:22:03.614Z,101158.25
2022-08-25T12:24:48.336Z,101165.53
2022-08-25T12:27:33.573Z,101159.22
2022-08-25T12:30:21.929Z,101159.41
2022-08-25T12:33:09.534Z,101160.31
2022-08-25T12:35:49.635Z,101163.66
2022-08-25T12:38:42.509Z,101164.56
2022-08-25T12:41:24.866Z,101150.63
2022-08-25T12:43:54.470Z,101146.69
2022-08-25T12:46:21.084Z,101145.34
2022-08-25T12:49:11.344Z,101154.75
2022-08-25T12:52:00.684Z,101143.75
2022-08-25T12:54:39.581Z,101141.56
2022-08-25T12:57:43.226Z,101144.78
2022-08-25T13:00:37.512Z,101139.41
2022-08-25T13:03:22.883Z,101146.00
2022-08-25T13:06:22.657Z,101135.38
2022-08-25T13:09:13.491Z,101138.13
2022-08-25T13:11:53.297Z,101138.13
2022-08-25T13:14:39.144Z,101132.88
2022-08-25T13:17:06.914Z,101129.56
2022-08-25T13:19:37.038Z,101118.97
2022-08-25T13:22:16.317Z,101118.28
2022-08-25T13:24:45.096Z,101115.25
2022-08-25T13:27:41.062Z,101121.28
2022-08-25T13:30:08.402Z,101108.66
2022-08-25T13:32:36.833Z,101110.88
2022-08-25T13:35:12.272Z,101096.47
2022-08-25T13:37:41.028Z,101107.38
2022-08-25T13:40:19.771Z,101100.72
2022-08-25T13:43:01.266Z,101098.03
2022-08-25T13:45:31.776Z,101099.78
2022-08-25T13:47:59.680Z,101091.72
2022-08-25T13:50:26.983Z,101097.28
2022-08-25T13:53:14.772Z,101097.75
2022-08-25T13:55:51.515Z,101097.56
2022-08-25T13:58:38.869Z,101089.81
2022-08-25T14:01:48.915Z,101090.41
2022-08-25T14:04:27.313Z,101088.22
2022-08-25T14:07:07.337Z,101086.44
2022-08-25T14:10:01.327Z,101088.34
2022-08-25T14:12:34.912Z,101084.56
2022-08-25T14:15:04.276Z,101080.91
2022-08-25T14:17:40.332Z,101078.50
2022-08-25T14:20:29.160Z,101070.94
2022-08-25T14:23:09.874Z,101072.19
2022-08-25T14:25:37.369Z,101072.06
2022-08-25T14:28:13.650Z,101063.66
2022-08-25T14:30:46.506Z,101062.34
2022-08-25T14:33:15.053Z,101068.19
2022-08-25T14:35:45.858Z,101067.44
2022-08-25T14:38:14.334Z,101062.66
2022-08-25T14:40:41.727Z,101059.19
2022-08-25T14:43:09.590Z,101055.69
2022-08-25T14:45:39.125Z,101053.75
2022-08-25T14:48:18.044Z,101048.19
2022-08-25T14:50:45.506Z,101053.09
2022-08-25T14:53:12.460Z,101040.88
2022-08-25T14:55:39.852Z,101032.78
2022-08-25T14:58:07.680Z,101030.69
2022-08-25T15:00:42.975Z,101042.06
2022-08-25T15:03:16.622Z,101031.28
2022-08-25T15:05:44.944Z,101039.38
2022-08-25T15:08:33.264Z,101037.13
2022-08-25T15:11:00.122Z,101030.66
2022-08-25T15:13:27.502Z,101033.63
2022-08-25T15:15:54.943Z,101026.97
2022-08-25T15:18:25.877Z,101022.06
2022-08-25T15:20:52.924Z,101018.53
2022-08-25T15:23:19.997Z,101020.88
2022-08-25T15:25:49.105Z,101018.34
2022-08-25T15:28:21.943Z,101016.41
2022-08-25T15:30:49.362Z,101017.69
2022-08-25T15:33:15.982Z,101014.09
2022-08-25T15:35:43.473Z,101017.25
2022-08-25T15:38:12.005Z,101013.16
2022-08-25T15:40:39.738Z,101019.00
2022-08-25T15:43:07.044Z,101008.06
2022-08-25T15:45:36.057Z,101004.09
2022-08-25T15:48:04.441Z,100997.38
2022-08-25T15:50:33.597Z,101007.91
2022-08-25T15:53:01.706Z,100999.38
2022-08-25T15:55:28.364Z,101000.97
2022-08-25T15:57:56.315Z,100992.72
2022-08-25T16:00:23.180Z,100999.00
2022-08-25T16:02:50.309Z,101001.53
2022-08-25T16:05:17.189Z,100999.63
2022-08-25T16:07:46.211Z,101001.53
2022-08-25T16:10:18.637Z,100993.00
2022-08-25T16:12:46.099Z,100985.81
2022-08-25T16:15:12.915Z,100989.41
2022-08-25T16:17:40.804Z,100997.00
2022-08-25T16:20:12.656Z,100991.63
2022-08-25T16:22:40.805Z,100994.13
2022-08-25T16:25:08.141Z,100992.06
2022-08-25T16:27:38.773Z,100989.97
2022-08-25T16:30:14.980Z,100990.09
2022-08-25T16:32:44.469Z,100993.19
2022-08-25T16:35:11.463Z,100987.28
2022-08-25T16:37:38.237Z,100990.59
2022-08-25T16:40:08.181Z,100983.94
2022-08-25T16:42:35.611Z,100983.47
2022-08-25T16:45:02.158Z,100984.84
2022-08-25T16:47:37.089Z,100977.41
2022-08-25T16:50:06.792Z,100986.06
2022-08-25T16:52:51.928Z,100982.69
2022-08-25T16:55:20.861Z,100982.22
2022-08-25T16:57:56.276Z,100977.13
2022-08-25T17:00:25.914Z,100978.53
2022-08-25T17:03:00.580Z,100981.63
2022-08-25T17:05:29.242Z,100983.81
2022-08-25T17:08:17.656Z,100983.91
2022-08-25T17:10:44.271Z,100976.25
2022-08-25T17:13:12.907Z,100981.13
2022-08-25T17:15:46.914Z,100982.03
2022-08-25T17:18:13.783Z,100977.56
2022-08-25T17:20:45.310Z,100972.00
2022-08-25T17:23:13.066Z,100981.72
2022-08-25T17:25:42.938Z,100990.38
2022-08-25T17:28:11.925Z,100980.84
2022-08-25T17:30:39.482Z,100983.59
2022-08-25T17:33:06.775Z,100987.69
2022-08-25T17:35:39.534Z,100991.56
2022-08-25T17:38:06.469Z,100989.28
2022-08-25T17:40:34.101Z,100991.25
2022-08-25T17:43:01.832Z,100995.59
2022-08-25T17:45:28.428Z,100994.91
2022-08-25T17:47:55.189Z,100990.41
2022-08-25T17:50:21.973Z,101000.13
2022-08-25T17:52:49.134Z,100988.72
2022-08-25T17:55:15.836Z,100995.72
2022-08-25T17:57:42.439Z,100990.75
2022-08-25T18:00:12.093Z,100995.13
2022-08-25T18:02:40.356Z,101000.84
2022-08-25T18:05:07.531Z,100995.09
2022-08-25T18:07:34.091Z,100991.94
2022-08-25T18:10:02.092Z,101000.34
2022-08-25T18:12:28.849Z,100998.06
2022-08-25T18:14:55.467Z,100997.91
2022-08-25T18:17:23.078Z,101002.31
2022-08-25T18:19:49.667Z,100994.16
2022-08-25T18:22:21.337Z,100999.38
2022-08-25T18:24:48.074Z,101002.13
2022-08-25T18:27:14.660Z,101001.19
2022-08-25T18:29:41.843Z,101000.22
2022-08-25T18:32:09.746Z,101002.47
2022-08-25T18:34:39.040Z,101005.47
2022-08-25T18:37:25.529Z,101003.16
2022-08-25T18:40:10.652Z,101002.19
2022-08-25T18:42:37.313Z,101007.63
2022-08-25T18:45:08.089Z,101003.97
2022-08-25T18:47:39.030Z,101009.16
2022-08-25T18:50:06.961Z,101012.72
2022-08-25T18:52:34.806Z,101004.75
2022-08-25T18:55:01.753Z,101003.47
2022-08-25T18:57:28.367Z,101009.69
2022-08-25T18:59:55.451Z,101010.00
2022-08-25T19:02:22.224Z,101012.72
2022-08-25T19:04:52.662Z,101013.03
2022-08-25T19:07:19.738Z,101008.28
2022-08-25T19:09:46.560Z,101014.50
2022-08-25T19:12:22.186Z,101005.78
2022-08-25T19:14:49.687Z,101016.22
2022-08-25T19:17:17.183Z,101009.84
2022-08-25T19:19:44.127Z,101005.84
2022-08-25T19:22:31.707Z,101007.19
2022-08-25T19:24:58.235Z,101012.06
2022-08-25T19:27:25.214Z,101011.28
2022-08-25T19:29:52.445Z,101007.84
2022-08-25T19:32:19.935Z,101010.56
2022-08-25T19:34:47.358Z,101020.44
2022-08-25T19:37:19.442Z,101017.56
2022-08-25T19:39:52.900Z,101021.06
2022-08-25T19:42:37.336Z,101023.19
2022-08-25T19:45:07.661Z,101020.81
2022-08-25T19:47:34.741Z,101024.31
2022-08-25T19:50:01.556Z,101023.25
2022-08-25T19:52:28.828Z,101022.72
2022-08-25T19:54:55.931Z,101027.53
2022-08-25T19:57:28.169Z,101024.34
2022-08-25T20:00:14.047Z,101015.03
2022-08-25T20:02:40.994Z,101021.44
2022-08-25T20:05:07.760Z,101020.34
2022-08-25T20:07:35.193Z,101014.25
2022-08-25T20:10:02.394Z,101016.59
2022-08-25T20:12:29.631Z,101019.00
2022-08-25T20:14:57.279Z,101017.69
2022-08-25T20:17:26.115Z,101020.34
2022-08-25T20:19:59.048Z,101019.28
2022-08-25T20:22:28.140Z,101023.53
2022-08-25T20:25:13.173Z,101015.81
2022-08-25T20:27:46.884Z,101022.19
2022-08-25T20:30:26.827Z,101025.66
2022-08-25T20:32:55.939Z,101019.81
2022-08-25T20:35:26.774Z,101016.63
2022-08-25T20:37:54.893Z,101020.31
2022-08-25T20:40:25.835Z,101023.78
2022-08-25T20:42:53.536Z,101022.44
2022-08-25T20:45:24.116Z,101022.94
2022-08-25T20:47:51.297Z,101017.34
2022-08-25T20:50:18.251Z,101022.38
2022-08-25T20:52:44.845Z,101023.69
2022-08-25T20:55:12.407Z,101017.31
2022-08-25T20:57:40.373Z,101022.59
2022-08-25T21:00:09.343Z,101022.06
2022-08-25T21:02:36.124Z,101021.81
2022-08-25T21:05:21.583Z,101021.00
2022-08-25T21:07:48.403Z,101016.47
2022-08-25T21:10:16.920Z,101021.50
2022-08-25T21:12:45.010Z,101018.56
2022-08-25T21:15:17.942Z,101017.50
2022-08-25T21:17:50.729Z,101020.38
2022-08-25T21:20:18.426Z,101020.38
2022-08-25T21:22:44.997Z,101025.13
2022-08-25T21:25:11.938Z,101023.53
2022-08-25T21:27:38.718Z,101029.59
2022-08-25T21:30:07.162Z,101026.88
2022-08-25T21:32:34.819Z,101027.63
2022-08-25T21:35:01.741Z,101023.09
2022-08-25T21:37:28.594Z,101027.06
2022-08-25T21:39:55.208Z,101022.28
2022-08-25T21:42:23.990Z,101027.59
2022-08-25T21:44:52.295Z,101020.66
2022-08-25T21:47:21.191Z,101017.97
2022-08-25T21:49:48.891Z,101018.75
2022-08-25T21:52:15.904Z,101020.31
2022-08-25T21:54:43.793Z,101021.91
2022-08-25T21:57:11.772Z,101024.25
2022-08-25T21:59:41.041Z,101009.66
2022-08-25T22:02:10.027Z,101016.78
2022-08-25T22:04:38.921Z,101015.91
2022-08-25T22:07:06.742Z,101012.19
2022-08-25T22:09:33.785Z,101011.91
2022-08-25T22:12:00.545Z,101011.34
2022-08-25T22:14:27.785Z,101017.16
2022-08-25T22:16:55.510Z,101014.72
2022-08-25T22:19:23.017Z,101016.06
2022-08-25T22:21:50.861Z,101023.44
2022-08-25T22:24:18.161Z,101017.84
2022-08-25T22:26:47.518Z,101023.66
2022-08-25T22:29:20.195Z,101019.91
2022-08-25T22:31:53.094Z,101017.22
2022-08-25T22:34:30.697Z,101011.63
2022-08-25T22:36:59.741Z,101008.13
2022-08-25T22:39:27.214Z,101010.22
2022-08-25T22:41:53.926Z,101005.19
2022-08-25T22:44:20.512Z,101011.53
2022-08-25T22:46:47.057Z,101011.78
2022-08-25T22:49:13.956Z,101010.44
2022-08-25T22:51:41.053Z,101021.53
2022-08-25T22:54:09.600Z,101022.84
2022-08-25T22:56:38.924Z,101024.88
2022-08-25T22:59:10.504Z,101040.16
2022-08-25T23:01:37.582Z,101045.88
2022-08-25T23:04:07.265Z,101051.09
2022-08-25T23:06:34.808Z,101049.75
2022-08-25T23:09:04.585Z,101051.84
2022-08-25T23:11:31.514Z,101056.13
2022-08-25T23:14:05.453Z,101052.16
2022-08-25T23:16:33.229Z,101058.81
2022-08-25T23:19:00.720Z,101050.06
2022-08-25T23:21:46.453Z,101057.69
2022-08-25T23:24:14.926Z,101052.66
2022-08-25T23:26:57.424Z,101056.59
2022-08-25T23:29:25.170Z,101058.69
2022-08-25T23:31:52.127Z,101060.47
2022-08-25T23:34:21.725Z,101054.88
2022-08-25T23:36:50.389Z,101062.75
2022-08-25T23:39:17.367Z,101064.56
2022-08-25T23:41:44.439Z,101054.13
2022-08-25T23:44:11.550Z,101052.72
2022-08-25T23:46:44.451Z,101052.38
2022-08-25T23:49:11.318Z,101058.69
2022-08-25T23:51:38.141Z,101057.00
2022-08-25T23:54:09.417Z,101055.06
2022-08-25T23:56:44.413Z,101057.56
2022-08-25T23:59:13.126Z,101059.56
